sensor_id;sensor_type;location;lat;lon;timestamp;temperature;humidity
40253;DHT22;25972;51.854;4.534;2024-01-06T00:00:00;6.40;99.90
40253;DHT22;25972;51.854;4.534;2024-01-06T00:02:26;6.40;99.90
40253;DHT22;25972;51.854;4.534;2024-01-06T00:04:53;6.30;99.90
40253;DHT22;25972;51.854;4.534;2024-01-06T00:07:19;6.30;99.90
40253;DHT22;25972;51.854;4.534;2024-01-06T00:09:45;6.30;99.90
40253;DHT22;25972;51.854;4.534;2024-01-06T00:12:11;6.30;99.90
40253;DHT22;25972;51.854;4.534;2024-01-06T00:14:37;6.30;99.90
40253;DHT22;25972;51.854;4.534;2024-01-06T00:17:03;6.40;99.90
40253;DHT22;25972;51.854;4.534;2024-01-06T00:19:28;6.40;99.90
40253;DHT22;25972;51.854;4.534;2024-01-06T00:21:56;6.40;99.90
40253;DHT22;25972;51.854;4.534;2024-01-06T00:24:21;6.30;99.90
40253;DHT22;25972;51.854;4.534;2024-01-06T00:26:47;6.30;99.90
40253;DHT22;25972;51.854;4.534;2024-01-06T00:29:13;6.30;99.90
40253;DHT22;25972;51.854;4.534;2024-01-06T00:31:39;6.30;99.90
40253;DHT22;25972;51.854;4.534;2024-01-06T00:34:05;6.20;99.90
40253;DHT22;25972;51.854;4.534;2024-01-06T00:36:30;6.30;99.90
40253;DHT22;25972;51.854;4.534;2024-01-06T00:38:58;6.20;99.90
40253;DHT22;25972;51.854;4.534;2024-01-06T00:41:24;6.20;99.90
40253;DHT22;25972;51.854;4.534;2024-01-06T00:43:49;6.20;99.90
40253;DHT22;25972;51.854;4.534;2024-01-06T00:46:15;6.20;99.90
40253;DHT22;25972;51.854;4.534;2024-01-06T00:48:41;6.10;99.90
40253;DHT22;25972;51.854;4.534;2024-01-06T00:51:07;6.10;99.90
40253;DHT22;25972;51.854;4.534;2024-01-06T00:53:33;6.10;99.90
40253;DHT22;25972;51.854;4.534;2024-01-06T00:56:00;6.10;99.90
40253;DHT22;25972;51.854;4.534;2024-01-06T00:58:26;6.00;99.90
40253;DHT22;25972;51.854;4.534;2024-01-06T01:00:52;6.00;99.90
40253;DHT22;25972;51.854;4.534;2024-01-06T01:03:18;6.00;99.90
40253;DHT22;25972;51.854;4.534;2024-01-06T01:05:43;6.00;99.90
40253;DHT22;25972;51.854;4.534;2024-01-06T01:08:09;6.00;99.90
40253;DHT22;25972;51.854;4.534;2024-01-06T01:10:35;6.00;99.90
40253;DHT22;25972;51.854;4.534;2024-01-06T01:13:03;6.00;99.90
40253;DHT22;25972;51.854;4.534;2024-01-06T01:15:28;6.00;99.90
40253;DHT22;25972;51.854;4.534;2024-01-06T01:17:54;6.00;99.90
40253;DHT22;25972;51.854;4.534;2024-01-06T01:20:20;6.00;99.90
40253;DHT22;25972;51.854;4.534;2024-01-06T01:22:46;6.00;99.90
40253;DHT22;25972;51.854;4.534;2024-01-06T01:25:11;5.90;99.90
40253;DHT22;25972;51.854;4.534;2024-01-06T01:27:38;5.90;99.90
40253;DHT22;25972;51.854;4.534;2024-01-06T01:30:07;5.90;99.90
40253;DHT22;25972;51.854;4.534;2024-01-06T01:32:32;5.80;99.90
40253;DHT22;25972;51.854;4.534;2024-01-06T01:34:58;5.90;99.90
40253;DHT22;25972;51.854;4.534;2024-01-06T01:37:24;5.80;99.90
40253;DHT22;25972;51.854;4.534;2024-01-06T01:39:50;5.80;99.90
40253;DHT22;25972;51.854;4.534;2024-01-06T01:42:16;5.90;99.90
40253;DHT22;25972;51.854;4.534;2024-01-06T01:44:41;5.80;99.90
40253;DHT22;25972;51.854;4.534;2024-01-06T01:47:09;5.80;99.90
40253;DHT22;25972;51.854;4.534;2024-01-06T01:49:35;5.80;99.90
40253;DHT22;25972;51.854;4.534;2024-01-06T01:52:01;5.80;99.90
40253;DHT22;25972;51.854;4.534;2024-01-06T01:54:27;5.80;99.90
40253;DHT22;25972;51.854;4.534;2024-01-06T01:56:53;5.80;99.90
40253;DHT22;25972;51.854;4.534;2024-01-06T01:59:19;5.80;99.90
40253;DHT22;25972;51.854;4.534;2024-01-06T02:01:45;5.80;99.90
40253;DHT22;25972;51.854;4.534;2024-01-06T02:04:13;5.70;99.90
40253;DHT22;25972;51.854;4.534;2024-01-06T02:06:38;5.80;99.90
40253;DHT22;25972;51.854;4.534;2024-01-06T02:09:04;5.80;99.90
40253;DHT22;25972;51.854;4.534;2024-01-06T02:11:31;5.70;99.90
40253;DHT22;25972;51.854;4.534;2024-01-06T02:13:57;5.70;99.90
40253;DHT22;25972;51.854;4.534;2024-01-06T02:16:22;6.20;99.90
40253;DHT22;25972;51.854;4.534;2024-01-06T02:18:48;5.70;99.90
40253;DHT22;25972;51.854;4.534;2024-01-06T02:21:16;5.70;99.90
40253;DHT22;25972;51.854;4.534;2024-01-06T02:23:44;5.80;99.90
40253;DHT22;25972;51.854;4.534;2024-01-06T02:26:10;5.80;99.90
40253;DHT22;25972;51.854;4.534;2024-01-06T02:28:36;5.70;99.90
40253;DHT22;25972;51.854;4.534;2024-01-06T02:31:02;5.70;99.90
40253;DHT22;25972;51.854;4.534;2024-01-06T02:33:28;5.80;99.90
40253;DHT22;25972;51.854;4.534;2024-01-06T02:35:54;5.70;99.90
40253;DHT22;25972;51.854;4.534;2024-01-06T02:38:20;5.70;99.90
40253;DHT22;25972;51.854;4.534;2024-01-06T02:40:47;5.70;99.90
40253;DHT22;25972;51.854;4.534;2024-01-06T02:43:13;5.70;99.90
40253;DHT22;25972;51.854;4.534;2024-01-06T02:45:38;5.70;99.90
40253;DHT22;25972;51.854;4.534;2024-01-06T02:48:04;5.60;99.90
40253;DHT22;25972;51.854;4.534;2024-01-06T02:50:30;5.60;99.90
40253;DHT22;25972;51.854;4.534;2024-01-06T02:52:56;5.60;99.90
40253;DHT22;25972;51.854;4.534;2024-01-06T02:55:22;5.50;99.90
40253;DHT22;25972;51.854;4.534;2024-01-06T02:57:49;5.50;99.90
40253;DHT22;25972;51.854;4.534;2024-01-06T03:00:15;5.50;99.90
40253;DHT22;25972;51.854;4.534;2024-01-06T03:02:41;5.40;99.90
40253;DHT22;25972;51.854;4.534;2024-01-06T03:05:08;5.50;99.90
40253;DHT22;25972;51.854;4.534;2024-01-06T03:07:34;5.40;99.90
40253;DHT22;25972;51.854;4.534;2024-01-06T03:10:00;5.50;99.90
40253;DHT22;25972;51.854;4.534;2024-01-06T03:12:26;5.40;99.90
40253;DHT22;25972;51.854;4.534;2024-01-06T03:14:53;5.40;99.90
40253;DHT22;25972;51.854;4.534;2024-01-06T03:17:19;5.40;99.90
40253;DHT22;25972;51.854;4.534;2024-01-06T03:19:44;5.40;99.90
40253;DHT22;25972;51.854;4.534;2024-01-06T03:22:10;5.40;99.90
40253;DHT22;25972;51.854;4.534;2024-01-06T03:24:36;5.30;99.90
40253;DHT22;25972;51.854;4.534;2024-01-06T03:27:02;5.30;99.90
40253;DHT22;25972;51.854;4.534;2024-01-06T03:29:28;5.20;99.90
40253;DHT22;25972;51.854;4.534;2024-01-06T03:31:55;5.30;99.90
40253;DHT22;25972;51.854;4.534;2024-01-06T03:34:21;5.30;99.90
40253;DHT22;25972;51.854;4.534;2024-01-06T03:36:47;5.20;99.90
40253;DHT22;25972;51.854;4.534;2024-01-06T03:39:13;5.20;99.90
40253;DHT22;25972;51.854;4.534;2024-01-06T03:41:39;5.20;99.90
40253;DHT22;25972;51.854;4.534;2024-01-06T03:44:05;5.20;99.90
40253;DHT22;25972;51.854;4.534;2024-01-06T03:46:32;5.20;99.90
40253;DHT22;25972;51.854;4.534;2024-01-06T03:48:59;5.20;99.90
40253;DHT22;25972;51.854;4.534;2024-01-06T03:51:24;5.20;99.90
40253;DHT22;25972;51.854;4.534;2024-01-06T03:53:50;5.20;99.90
40253;DHT22;25972;51.854;4.534;2024-01-06T03:56:16;5.20;99.90
40253;DHT22;25972;51.854;4.534;2024-01-06T03:58:42;5.10;99.90
40253;DHT22;25972;51.854;4.534;2024-01-06T04:01:08;5.20;99.90
40253;DHT22;25972;51.854;4.534;2024-01-06T04:03:33;5.20;99.90
40253;DHT22;25972;51.854;4.534;2024-01-06T04:06:01;5.20;99.90
40253;DHT22;25972;51.854;4.534;2024-01-06T04:08:26;5.20;99.90
40253;DHT22;25972;51.854;4.534;2024-01-06T04:10:52;5.20;99.90
40253;DHT22;25972;51.854;4.534;2024-01-06T04:13:18;5.10;99.90
40253;DHT22;25972;51.854;4.534;2024-01-06T04:15:44;5.20;99.90
40253;DHT22;25972;51.854;4.534;2024-01-06T04:18:09;5.10;99.90
40253;DHT22;25972;51.854;4.534;2024-01-06T04:20:36;5.10;99.90
40253;DHT22;25972;51.854;4.534;2024-01-06T04:23:03;5.10;99.90
40253;DHT22;25972;51.854;4.534;2024-01-06T04:25:29;5.20;99.90
40253;DHT22;25972;51.854;4.534;2024-01-06T04:27:55;5.10;99.90
40253;DHT22;25972;51.854;4.534;2024-01-06T04:30:21;5.10;99.90
40253;DHT22;25972;51.854;4.534;2024-01-06T04:32:47;5.10;99.90
40253;DHT22;25972;51.854;4.534;2024-01-06T04:35:14;5.10;99.90
40253;DHT22;25972;51.854;4.534;2024-01-06T04:37:39;5.10;99.90
40253;DHT22;25972;51.854;4.534;2024-01-06T04:40:07;5.00;99.90
40253;DHT22;25972;51.854;4.534;2024-01-06T04:42:33;5.10;99.90
40253;DHT22;25972;51.854;4.534;2024-01-06T04:44:59;5.00;99.90
40253;DHT22;25972;51.854;4.534;2024-01-06T04:47:25;5.10;99.90
40253;DHT22;25972;51.854;4.534;2024-01-06T04:49:50;5.10;99.90
40253;DHT22;25972;51.854;4.534;2024-01-06T04:52:16;5.10;99.90
40253;DHT22;25972;51.854;4.534;2024-01-06T04:54:42;5.00;99.90
40253;DHT22;25972;51.854;4.534;2024-01-06T04:57:09;5.10;99.90
40253;DHT22;25972;51.854;4.534;2024-01-06T04:59:35;5.00;99.90
40253;DHT22;25972;51.854;4.534;2024-01-06T05:02:01;5.10;99.90
40253;DHT22;25972;51.854;4.534;2024-01-06T05:04:27;5.00;99.90
40253;DHT22;25972;51.854;4.534;2024-01-06T05:06:52;5.00;99.90
40253;DHT22;25972;51.854;4.534;2024-01-06T05:09:18;5.00;99.90
40253;DHT22;25972;51.854;4.534;2024-01-06T05:11:44;5.00;99.90
40253;DHT22;25972;51.854;4.534;2024-01-06T05:14:11;5.00;99.90
40253;DHT22;25972;51.854;4.534;2024-01-06T05:16:37;5.00;99.90
40253;DHT22;25972;51.854;4.534;2024-01-06T05:19:03;5.00;99.90
40253;DHT22;25972;51.854;4.534;2024-01-06T05:21:29;5.00;99.90
40253;DHT22;25972;51.854;4.534;2024-01-06T05:23:55;5.00;99.90
40253;DHT22;25972;51.854;4.534;2024-01-06T05:26:21;5.00;99.90
40253;DHT22;25972;51.854;4.534;2024-01-06T05:28:46;5.00;99.90
40253;DHT22;25972;51.854;4.534;2024-01-06T05:31:14;5.00;99.90
40253;DHT22;25972;51.854;4.534;2024-01-06T05:33:40;5.00;99.90
40253;DHT22;25972;51.854;4.534;2024-01-06T05:36:06;5.00;99.90
40253;DHT22;25972;51.854;4.534;2024-01-06T05:38:32;5.00;99.90
40253;DHT22;25972;51.854;4.534;2024-01-06T05:40:58;4.90;99.90
40253;DHT22;25972;51.854;4.534;2024-01-06T05:43:24;5.00;99.90
40253;DHT22;25972;51.854;4.534;2024-01-06T05:45:50;4.90;99.90
40253;DHT22;25972;51.854;4.534;2024-01-06T05:48:17;4.90;99.90
40253;DHT22;25972;51.854;4.534;2024-01-06T05:50:43;5.00;99.90
40253;DHT22;25972;51.854;4.534;2024-01-06T05:53:09;5.00;99.90
40253;DHT22;25972;51.854;4.534;2024-01-06T05:55:37;4.90;99.90
40253;DHT22;25972;51.854;4.534;2024-01-06T05:58:04;4.90;99.90
40253;DHT22;25972;51.854;4.534;2024-01-06T06:00:30;4.90;99.90
40253;DHT22;25972;51.854;4.534;2024-01-06T06:02:57;4.90;99.90
40253;DHT22;25972;51.854;4.534;2024-01-06T06:05:24;4.90;99.90
40253;DHT22;25972;51.854;4.534;2024-01-06T06:07:50;4.80;99.90
40253;DHT22;25972;51.854;4.534;2024-01-06T06:10:16;4.80;99.90
40253;DHT22;25972;51.854;4.534;2024-01-06T06:12:43;4.80;99.90
40253;DHT22;25972;51.854;4.534;2024-01-06T06:15:09;4.80;99.90
40253;DHT22;25972;51.854;4.534;2024-01-06T06:17:35;4.80;99.90
40253;DHT22;25972;51.854;4.534;2024-01-06T06:20:01;4.70;99.90
40253;DHT22;25972;51.854;4.534;2024-01-06T06:22:28;4.80;99.90
40253;DHT22;25972;51.854;4.534;2024-01-06T06:24:57;4.70;99.90
40253;DHT22;25972;51.854;4.534;2024-01-06T06:27:23;4.70;99.90
40253;DHT22;25972;51.854;4.534;2024-01-06T06:29:49;4.70;99.90
40253;DHT22;25972;51.854;4.534;2024-01-06T06:32:15;4.70;99.90
40253;DHT22;25972;51.854;4.534;2024-01-06T06:34:41;4.70;99.90
40253;DHT22;25972;51.854;4.534;2024-01-06T06:37:07;4.70;99.90
40253;DHT22;25972;51.854;4.534;2024-01-06T06:39:35;4.70;99.90
40253;DHT22;25972;51.854;4.534;2024-01-06T06:42:01;4.70;99.90
40253;DHT22;25972;51.854;4.534;2024-01-06T06:44:27;4.70;99.90
40253;DHT22;25972;51.854;4.534;2024-01-06T06:46:52;4.70;99.90
40253;DHT22;25972;51.854;4.534;2024-01-06T06:49:18;4.70;99.90
40253;DHT22;25972;51.854;4.534;2024-01-06T06:51:44;4.70;99.90
40253;DHT22;25972;51.854;4.534;2024-01-06T06:54:14;4.70;99.90
40253;DHT22;25972;51.854;4.534;2024-01-06T06:56:42;4.70;99.90
40253;DHT22;25972;51.854;4.534;2024-01-06T06:59:08;4.70;99.90
40253;DHT22;25972;51.854;4.534;2024-01-06T07:01:33;4.70;99.90
40253;DHT22;25972;51.854;4.534;2024-01-06T07:04:00;4.70;99.90
40253;DHT22;25972;51.854;4.534;2024-01-06T07:06:26;4.60;99.90
40253;DHT22;25972;51.854;4.534;2024-01-06T07:08:52;4.60;99.90
40253;DHT22;25972;51.854;4.534;2024-01-06T07:11:19;4.70;99.90
40253;DHT22;25972;51.854;4.534;2024-01-06T07:13:46;4.70;99.90
40253;DHT22;25972;51.854;4.534;2024-01-06T07:16:12;4.60;99.90
40253;DHT22;25972;51.854;4.534;2024-01-06T07:18:38;4.70;99.90
40253;DHT22;25972;51.854;4.534;2024-01-06T07:21:05;4.60;99.90
40253;DHT22;25972;51.854;4.534;2024-01-06T07:23:33;4.60;99.90
40253;DHT22;25972;51.854;4.534;2024-01-06T07:25:59;4.60;99.90
40253;DHT22;25972;51.854;4.534;2024-01-06T07:28:25;4.60;99.90
40253;DHT22;25972;51.854;4.534;2024-01-06T07:30:52;4.60;99.90
40253;DHT22;25972;51.854;4.534;2024-01-06T07:33:18;4.60;99.90
40253;DHT22;25972;51.854;4.534;2024-01-06T07:35:44;4.60;99.90
40253;DHT22;25972;51.854;4.534;2024-01-06T07:38:10;4.60;99.90
40253;DHT22;25972;51.854;4.534;2024-01-06T07:40:36;4.50;99.90
40253;DHT22;25972;51.854;4.534;2024-01-06T07:43:02;4.60;99.90
40253;DHT22;25972;51.854;4.534;2024-01-06T07:45:28;4.60;99.90
40253;DHT22;25972;51.854;4.534;2024-01-06T07:47:55;4.60;99.90
40253;DHT22;25972;51.854;4.534;2024-01-06T07:50:21;4.60;99.90
40253;DHT22;25972;51.854;4.534;2024-01-06T07:52:46;4.60;99.90
40253;DHT22;25972;51.854;4.534;2024-01-06T07:55:12;4.60;99.90
40253;DHT22;25972;51.854;4.534;2024-01-06T07:57:38;4.50;99.90
40253;DHT22;25972;51.854;4.534;2024-01-06T08:00:04;4.60;99.90
40253;DHT22;25972;51.854;4.534;2024-01-06T08:02:37;4.80;99.90
40253;DHT22;25972;51.854;4.534;2024-01-06T08:05:05;4.60;99.90
40253;DHT22;25972;51.854;4.534;2024-01-06T08:07:32;4.60;99.90
40253;DHT22;25972;51.854;4.534;2024-01-06T08:09:58;4.60;99.90
40253;DHT22;25972;51.854;4.534;2024-01-06T08:12:24;4.60;99.90
40253;DHT22;25972;51.854;4.534;2024-01-06T08:14:49;4.60;99.90
40253;DHT22;25972;51.854;4.534;2024-01-06T08:17:15;4.60;99.90
40253;DHT22;25972;51.854;4.534;2024-01-06T08:19:41;4.60;99.90
40253;DHT22;25972;51.854;4.534;2024-01-06T08:22:08;4.60;99.90
40253;DHT22;25972;51.854;4.534;2024-01-06T08:24:34;4.60;99.90
40253;DHT22;25972;51.854;4.534;2024-01-06T08:27:00;4.60;99.90
40253;DHT22;25972;51.854;4.534;2024-01-06T08:29:26;4.60;99.90
40253;DHT22;25972;51.854;4.534;2024-01-06T08:31:51;4.50;99.90
40253;DHT22;25972;51.854;4.534;2024-01-06T08:34:20;4.60;99.90
40253;DHT22;25972;51.854;4.534;2024-01-06T08:36:46;4.60;99.90
40253;DHT22;25972;51.854;4.534;2024-01-06T08:39:13;4.60;99.90
40253;DHT22;25972;51.854;4.534;2024-01-06T08:41:39;4.60;99.90
40253;DHT22;25972;51.854;4.534;2024-01-06T08:44:05;4.60;99.90
40253;DHT22;25972;51.854;4.534;2024-01-06T08:46:31;4.60;99.90
40253;DHT22;25972;51.854;4.534;2024-01-06T08:51:27;4.60;99.90
40253;DHT22;25972;51.854;4.534;2024-01-06T08:53:53;4.60;99.90
40253;DHT22;25972;51.854;4.534;2024-01-06T08:56:20;4.60;99.90
40253;DHT22;25972;51.854;4.534;2024-01-06T08:58:46;4.70;99.90
40253;DHT22;25972;51.854;4.534;2024-01-06T09:01:15;4.70;99.90
40253;DHT22;25972;51.854;4.534;2024-01-06T09:03:41;4.70;99.90
40253;DHT22;25972;51.854;4.534;2024-01-06T09:06:07;4.70;99.90
40253;DHT22;25972;51.854;4.534;2024-01-06T09:08:33;4.70;99.90
40253;DHT22;25972;51.854;4.534;2024-01-06T09:10:58;4.80;99.90
40253;DHT22;25972;51.854;4.534;2024-01-06T09:13:26;4.80;99.90
40253;DHT22;25972;51.854;4.534;2024-01-06T09:15:51;4.80;99.90
40253;DHT22;25972;51.854;4.534;2024-01-06T09:18:17;4.80;99.90
40253;DHT22;25972;51.854;4.534;2024-01-06T09:20:43;4.80;99.90
40253;DHT22;25972;51.854;4.534;2024-01-06T09:23:09;4.70;99.90
40253;DHT22;25972;51.854;4.534;2024-01-06T09:25:36;4.80;99.90
40253;DHT22;25972;51.854;4.534;2024-01-06T09:28:01;4.80;99.90
40253;DHT22;25972;51.854;4.534;2024-01-06T09:30:29;4.80;99.90
40253;DHT22;25972;51.854;4.534;2024-01-06T09:32:54;4.80;99.90
40253;DHT22;25972;51.854;4.534;2024-01-06T09:35:20;4.80;99.90
40253;DHT22;25972;51.854;4.534;2024-01-06T09:37:46;4.70;99.90
40253;DHT22;25972;51.854;4.534;2024-01-06T09:40:14;4.80;99.90
40253;DHT22;25972;51.854;4.534;2024-01-06T09:42:46;4.80;99.90
40253;DHT22;25972;51.854;4.534;2024-01-06T09:45:12;4.80;99.90
40253;DHT22;25972;51.854;4.534;2024-01-06T09:47:40;4.80;99.90
40253;DHT22;25972;51.854;4.534;2024-01-06T09:50:09;4.80;99.90
40253;DHT22;25972;51.854;4.534;2024-01-06T09:52:39;4.80;99.90
40253;DHT22;25972;51.854;4.534;2024-01-06T09:55:06;4.80;99.90
40253;DHT22;25972;51.854;4.534;2024-01-06T09:57:35;4.80;99.90
40253;DHT22;25972;51.854;4.534;2024-01-06T10:00:01;4.80;99.90
40253;DHT22;25972;51.854;4.534;2024-01-06T10:02:37;4.80;99.90
40253;DHT22;25972;51.854;4.534;2024-01-06T10:05:04;4.80;99.90
40253;DHT22;25972;51.854;4.534;2024-01-06T10:07:30;4.70;99.90
40253;DHT22;25972;51.854;4.534;2024-01-06T10:09:56;4.70;99.90
40253;DHT22;25972;51.854;4.534;2024-01-06T10:12:23;4.80;99.90
40253;DHT22;25972;51.854;4.534;2024-01-06T10:14:49;4.70;99.90
40253;DHT22;25972;51.854;4.534;2024-01-06T10:17:15;4.70;99.90
40253;DHT22;25972;51.854;4.534;2024-01-06T10:19:41;4.70;99.90
40253;DHT22;25972;51.854;4.534;2024-01-06T10:22:12;4.80;99.90
40253;DHT22;25972;51.854;4.534;2024-01-06T10:24:38;4.70;99.90
40253;DHT22;25972;51.854;4.534;2024-01-06T10:27:03;4.70;99.90
40253;DHT22;25972;51.854;4.534;2024-01-06T10:29:29;4.70;99.90
40253;DHT22;25972;51.854;4.534;2024-01-06T10:31:55;4.70;99.90
40253;DHT22;25972;51.854;4.534;2024-01-06T10:34:21;4.70;99.90
40253;DHT22;25972;51.854;4.534;2024-01-06T10:36:47;4.80;99.90
40253;DHT22;25972;51.854;4.534;2024-01-06T10:39:15;4.80;99.90
40253;DHT22;25972;51.854;4.534;2024-01-06T10:41:41;4.80;99.90
40253;DHT22;25972;51.854;4.534;2024-01-06T10:44:08;4.90;99.90
40253;DHT22;25972;51.854;4.534;2024-01-06T10:46:34;4.90;99.90
40253;DHT22;25972;51.854;4.534;2024-01-06T10:49:01;5.00;99.90
40253;DHT22;25972;51.854;4.534;2024-01-06T10:51:28;5.10;99.90
40253;DHT22;25972;51.854;4.534;2024-01-06T10:53:56;5.20;99.90
40253;DHT22;25972;51.854;4.534;2024-01-06T10:56:24;5.20;99.90
40253;DHT22;25972;51.854;4.534;2024-01-06T10:58:50;5.30;99.90
40253;DHT22;25972;51.854;4.534;2024-01-06T11:01:19;5.30;99.90
40253;DHT22;25972;51.854;4.534;2024-01-06T11:03:46;5.40;99.90
40253;DHT22;25972;51.854;4.534;2024-01-06T11:06:13;5.40;99.90
40253;DHT22;25972;51.854;4.534;2024-01-06T11:08:40;5.40;99.90
40253;DHT22;25972;51.854;4.534;2024-01-06T11:11:15;5.30;99.90
40253;DHT22;25972;51.854;4.534;2024-01-06T11:13:42;5.20;99.90
40253;DHT22;25972;51.854;4.534;2024-01-06T11:16:10;5.20;99.90
40253;DHT22;25972;51.854;4.534;2024-01-06T11:18:37;5.10;99.90
40253;DHT22;25972;51.854;4.534;2024-01-06T11:21:19;5.00;99.90
40253;DHT22;25972;51.854;4.534;2024-01-06T11:24:10;5.10;99.90
40253;DHT22;25972;51.854;4.534;2024-01-06T11:26:39;5.00;99.90
40253;DHT22;25972;51.854;4.534;2024-01-06T11:29:07;5.00;99.90
40253;DHT22;25972;51.854;4.534;2024-01-06T11:31:33;4.90;99.90
40253;DHT22;25972;51.854;4.534;2024-01-06T11:34:11;5.00;99.90
40253;DHT22;25972;51.854;4.534;2024-01-06T11:36:37;5.00;99.90
40253;DHT22;25972;51.854;4.534;2024-01-06T11:39:04;4.90;99.90
40253;DHT22;25972;51.854;4.534;2024-01-06T11:41:47;5.00;99.90
40253;DHT22;25972;51.854;4.534;2024-01-06T11:44:15;4.90;99.90
40253;DHT22;25972;51.854;4.534;2024-01-06T11:46:43;5.00;99.90
40253;DHT22;25972;51.854;4.534;2024-01-06T11:49:10;4.90;99.90
40253;DHT22;25972;51.854;4.534;2024-01-06T11:51:36;4.90;99.90
40253;DHT22;25972;51.854;4.534;2024-01-06T11:54:02;4.90;99.90
40253;DHT22;25972;51.854;4.534;2024-01-06T11:56:28;4.90;99.90
40253;DHT22;25972;51.854;4.534;2024-01-06T11:58:54;4.90;99.90
40253;DHT22;25972;51.854;4.534;2024-01-06T12:01:22;4.90;99.90
40253;DHT22;25972;51.854;4.534;2024-01-06T12:03:54;5.00;99.90
40253;DHT22;25972;51.854;4.534;2024-01-06T12:06:20;4.90;99.90
40253;DHT22;25972;51.854;4.534;2024-01-06T12:08:47;4.90;99.90
40253;DHT22;25972;51.854;4.534;2024-01-06T12:11:13;4.90;99.90
40253;DHT22;25972;51.854;4.534;2024-01-06T12:13:44;4.90;99.90
40253;DHT22;25972;51.854;4.534;2024-01-06T12:16:09;4.90;99.90
40253;DHT22;25972;51.854;4.534;2024-01-06T12:18:36;4.90;99.90
40253;DHT22;25972;51.854;4.534;2024-01-06T12:21:03;4.90;99.90
40253;DHT22;25972;51.854;4.534;2024-01-06T12:23:28;4.90;99.90
40253;DHT22;25972;51.854;4.534;2024-01-06T12:25:54;4.90;99.90
40253;DHT22;25972;51.854;4.534;2024-01-06T12:28:20;4.90;99.90
40253;DHT22;25972;51.854;4.534;2024-01-06T12:30:46;4.90;99.90
40253;DHT22;25972;51.854;4.534;2024-01-06T12:33:12;4.90;99.90
40253;DHT22;25972;51.854;4.534;2024-01-06T12:35:41;4.90;99.90
40253;DHT22;25972;51.854;4.534;2024-01-06T12:38:08;4.90;99.90
40253;DHT22;25972;51.854;4.534;2024-01-06T12:40:34;4.90;99.90
40253;DHT22;25972;51.854;4.534;2024-01-06T12:43:00;4.90;99.90
40253;DHT22;25972;51.854;4.534;2024-01-06T12:45:26;4.90;99.90
40253;DHT22;25972;51.854;4.534;2024-01-06T12:47:53;4.90;99.90
40253;DHT22;25972;51.854;4.534;2024-01-06T12:50:19;5.00;99.90
40253;DHT22;25972;51.854;4.534;2024-01-06T12:52:47;5.00;99.90
40253;DHT22;25972;51.854;4.534;2024-01-06T12:55:12;4.90;99.90
40253;DHT22;25972;51.854;4.534;2024-01-06T12:57:38;4.90;99.90
40253;DHT22;25972;51.854;4.534;2024-01-06T13:00:05;4.90;99.90
40253;DHT22;25972;51.854;4.534;2024-01-06T13:02:36;4.90;99.90
40253;DHT22;25972;51.854;4.534;2024-01-06T13:05:02;4.90;99.90
40253;DHT22;25972;51.854;4.534;2024-01-06T13:07:28;4.90;99.90
40253;DHT22;25972;51.854;4.534;2024-01-06T13:09:57;5.00;99.90
40253;DHT22;25972;51.854;4.534;2024-01-06T13:12:23;4.90;99.90
40253;DHT22;25972;51.854;4.534;2024-01-06T13:14:50;5.00;99.90
40253;DHT22;25972;51.854;4.534;2024-01-06T13:17:16;5.00;99.90
40253;DHT22;25972;51.854;4.534;2024-01-06T13:19:42;5.00;99.90
40253;DHT22;25972;51.854;4.534;2024-01-06T13:22:08;5.00;99.90
40253;DHT22;25972;51.854;4.534;2024-01-06T13:24:34;5.10;99.90
40253;DHT22;25972;51.854;4.534;2024-01-06T13:27:02;5.00;99.90
40253;DHT22;25972;51.854;4.534;2024-01-06T13:29:28;5.00;99.90
40253;DHT22;25972;51.854;4.534;2024-01-06T13:31:54;5.00;99.90
40253;DHT22;25972;51.854;4.534;2024-01-06T13:34:20;5.00;99.90
40253;DHT22;25972;51.854;4.534;2024-01-06T13:36:46;5.00;99.90
40253;DHT22;25972;51.854;4.534;2024-01-06T13:39:12;5.00;99.90
40253;DHT22;25972;51.854;4.534;2024-01-06T13:41:45;5.00;99.90
40253;DHT22;25972;51.854;4.534;2024-01-06T13:44:13;5.00;99.90
40253;DHT22;25972;51.854;4.534;2024-01-06T13:46:38;5.00;99.90
40253;DHT22;25972;51.854;4.534;2024-01-06T13:49:07;5.00;99.90
40253;DHT22;25972;51.854;4.534;2024-01-06T13:51:32;5.00;99.90
40253;DHT22;25972;51.854;4.534;2024-01-06T13:54:00;4.90;99.90
40253;DHT22;25972;51.854;4.534;2024-01-06T13:56:26;4.90;99.90
40253;DHT22;25972;51.854;4.534;2024-01-06T13:58:52;5.00;99.90
40253;DHT22;25972;51.854;4.534;2024-01-06T14:01:19;5.00;99.90
40253;DHT22;25972;51.854;4.534;2024-01-06T14:03:45;5.10;99.90
40253;DHT22;25972;51.854;4.534;2024-01-06T14:06:11;5.00;99.90
40253;DHT22;25972;51.854;4.534;2024-01-06T14:08:37;5.00;99.90
40253;DHT22;25972;51.854;4.534;2024-01-06T14:11:03;5.00;99.90
40253;DHT22;25972;51.854;4.534;2024-01-06T14:13:31;5.10;99.90
40253;DHT22;25972;51.854;4.534;2024-01-06T14:15:56;5.10;99.90
40253;DHT22;25972;51.854;4.534;2024-01-06T14:18:24;5.00;99.90
40253;DHT22;25972;51.854;4.534;2024-01-06T14:20:50;5.00;99.90
40253;DHT22;25972;51.854;4.534;2024-01-06T14:23:16;5.00;99.90
40253;DHT22;25972;51.854;4.534;2024-01-06T14:25:42;5.00;99.90
40253;DHT22;25972;51.854;4.534;2024-01-06T14:28:08;4.90;99.90
40253;DHT22;25972;51.854;4.534;2024-01-06T14:30:34;4.90;99.90
40253;DHT22;25972;51.854;4.534;2024-01-06T14:33:00;4.80;99.90
40253;DHT22;25972;51.854;4.534;2024-01-06T14:35:27;4.80;99.90
40253;DHT22;25972;51.854;4.534;2024-01-06T14:37:53;4.80;99.90
40253;DHT22;25972;51.854;4.534;2024-01-06T14:40:20;4.80;99.90
40253;DHT22;25972;51.854;4.534;2024-01-06T14:42:45;4.80;99.90
40253;DHT22;25972;51.854;4.534;2024-01-06T14:45:11;4.70;99.90
40253;DHT22;25972;51.854;4.534;2024-01-06T14:47:37;4.70;99.90
40253;DHT22;25972;51.854;4.534;2024-01-06T14:50:03;4.80;99.90
40253;DHT22;25972;51.854;4.534;2024-01-06T14:52:30;4.70;99.90
40253;DHT22;25972;51.854;4.534;2024-01-06T14:54:56;4.70;99.90
40253;DHT22;25972;51.854;4.534;2024-01-06T14:57:22;4.70;99.90
40253;DHT22;25972;51.854;4.534;2024-01-06T14:59:48;4.70;99.90
40253;DHT22;25972;51.854;4.534;2024-01-06T15:02:13;4.70;99.90
40253;DHT22;25972;51.854;4.534;2024-01-06T15:04:39;4.70;99.90
40253;DHT22;25972;51.854;4.534;2024-01-06T15:07:05;4.70;99.90
40253;DHT22;25972;51.854;4.534;2024-01-06T15:09:32;4.70;99.90
40253;DHT22;25972;51.854;4.534;2024-01-06T15:11:58;4.70;99.90
40253;DHT22;25972;51.854;4.534;2024-01-06T15:14:24;4.70;99.90
40253;DHT22;25972;51.854;4.534;2024-01-06T15:16:50;4.60;99.90
40253;DHT22;25972;51.854;4.534;2024-01-06T15:19:15;4.70;99.90
40253;DHT22;25972;51.854;4.534;2024-01-06T15:21:41;4.70;99.90
40253;DHT22;25972;51.854;4.534;2024-01-06T15:24:08;4.60;99.90
40253;DHT22;25972;51.854;4.534;2024-01-06T15:26:35;4.60;99.90
40253;DHT22;25972;51.854;4.534;2024-01-06T15:29:01;4.60;99.90
40253;DHT22;25972;51.854;4.534;2024-01-06T15:31:27;4.60;99.90
40253;DHT22;25972;51.854;4.534;2024-01-06T15:33:53;4.60;99.90
40253;DHT22;25972;51.854;4.534;2024-01-06T15:52:05;20.20;19.00
40253;DHT22;25972;51.854;4.534;2024-01-06T15:56:36;20.10;1.00
40253;DHT22;25972;51.854;4.534;2024-01-06T15:59:01;21.60;1.00